Grand Junction Regional Airport Grand Junction US
ICAO: KGJT
IATA: GJT
Category: Medium
Scheduled Services: Yes

Elevation: 4858 ft
TransAlt. 18000 ft.

Airport Communications:
DENVER APP/DEP:119.7
VFR ADVSY SVC:118.1
ATIS:118.55
CTAF:118.1
GND:121.7
DENVER RDO:122.6
GRAND JUNCTION TWR:118.1
UNICOM:122.95

KGJT Zoom In..

Runways:

(A) RW 04 length 5502 ft width 75 ft
---- / hdg 41

(B) RW 11 length 10501 ft width 150 ft
ILS 110.30 / hdg 112

(C) RW 22 length 5502 ft width 75 ft
---- / hdg 221

(D) RW 29 length 10501 ft width 150 ft
---- / hdg 292

Location; KGJT
Day. 23 / Time. 06.53 Zulu
* Altimeter: 30.18
* Temperature: 26° c. 78.8°f.
* Wind from: 280° Speed 06 kn.
Dewpoint: 09° c.
Visibility: 10 Statute Miles.
Clouds: Clear (automated report).

KGJT 230653Z AUTO 28006KT 10SM CLR 26/09 A3018 RMK AO2 PK WND 04028/0613 SLP135 T02610094 403780211


Wind From 280°
Speed 06 kn.

 
 
jpsmedia.com for Web Design worldairports.se 2018   terms of use